sensor_id;sensor_type;location;lat;lon;timestamp;P1;durP1;ratioP1;P2;durP2;ratioP2
38083;SDS011;23894;51.466;7.444;2023-04-06T00:00:31;17.27;;;12.63;;
38083;SDS011;23894;51.466;7.444;2023-04-06T00:02:32;16.83;;;13.35;;
38083;SDS011;23894;51.466;7.444;2023-04-06T00:04:33;17.08;;;13.07;;
38083;SDS011;23894;51.466;7.444;2023-04-06T00:06:34;17.58;;;12.63;;
38083;SDS011;23894;51.466;7.444;2023-04-06T00:08:35;17.55;;;11.73;;
38083;SDS011;23894;51.466;7.444;2023-04-06T00:10:36;15.80;;;11.10;;
38083;SDS011;23894;51.466;7.444;2023-04-06T00:12:37;15.70;;;11.98;;
38083;SDS011;23894;51.466;7.444;2023-04-06T00:14:40;15.40;;;12.15;;
38083;SDS011;23894;51.466;7.444;2023-04-06T00:16:42;16.50;;;12.68;;
38083;SDS011;23894;51.466;7.444;2023-04-06T00:18:44;16.70;;;13.35;;
38083;SDS011;23894;51.466;7.444;2023-04-06T00:20:46;18.00;;;13.45;;
38083;SDS011;23894;51.466;7.444;2023-04-06T00:22:49;18.97;;;13.30;;
38083;SDS011;23894;51.466;7.444;2023-04-06T00:24:50;18.17;;;13.65;;
38083;SDS011;23894;51.466;7.444;2023-04-06T00:26:51;18.13;;;13.27;;
38083;SDS011;23894;51.466;7.444;2023-04-06T00:28:53;16.67;;;13.23;;
38083;SDS011;23894;51.466;7.444;2023-04-06T00:30:56;18.05;;;13.48;;
38083;SDS011;23894;51.466;7.444;2023-04-06T00:32:57;17.25;;;13.20;;
38083;SDS011;23894;51.466;7.444;2023-04-06T00:34:58;17.55;;;12.93;;
38083;SDS011;23894;51.466;7.444;2023-04-06T00:36:59;17.75;;;13.43;;
38083;SDS011;23894;51.466;7.444;2023-04-06T00:39:00;17.70;;;13.40;;
38083;SDS011;23894;51.466;7.444;2023-04-06T00:41:03;17.77;;;13.48;;
38083;SDS011;23894;51.466;7.444;2023-04-06T00:43:06;17.55;;;13.65;;
38083;SDS011;23894;51.466;7.444;2023-04-06T00:45:09;18.25;;;12.68;;
38083;SDS011;23894;51.466;7.444;2023-04-06T00:47:10;18.48;;;13.77;;
38083;SDS011;23894;51.466;7.444;2023-04-06T00:49:12;18.98;;;13.35;;
38083;SDS011;23894;51.466;7.444;2023-04-06T00:51:15;17.65;;;14.20;;
38083;SDS011;23894;51.466;7.444;2023-04-06T00:53:17;17.70;;;13.85;;
38083;SDS011;23894;51.466;7.444;2023-04-06T00:55:20;16.60;;;13.27;;
38083;SDS011;23894;51.466;7.444;2023-04-06T00:57:23;18.52;;;14.13;;
38083;SDS011;23894;51.466;7.444;2023-04-06T00:59:25;19.80;;;14.20;;
38083;SDS011;23894;51.466;7.444;2023-04-06T01:01:28;18.15;;;14.50;;
38083;SDS011;23894;51.466;7.444;2023-04-06T01:03:33;20.65;;;14.27;;
38083;SDS011;23894;51.466;7.444;2023-04-06T01:05:35;18.48;;;14.27;;
38083;SDS011;23894;51.466;7.444;2023-04-06T01:07:40;18.13;;;13.98;;
38083;SDS011;23894;51.466;7.444;2023-04-06T01:09:41;19.83;;;14.43;;
38083;SDS011;23894;51.466;7.444;2023-04-06T01:11:43;17.27;;;13.80;;
38083;SDS011;23894;51.466;7.444;2023-04-06T01:13:44;18.33;;;14.02;;
38083;SDS011;23894;51.466;7.444;2023-04-06T01:15:46;18.92;;;14.65;;
38083;SDS011;23894;51.466;7.444;2023-04-06T01:17:48;17.17;;;13.70;;
38083;SDS011;23894;51.466;7.444;2023-04-06T01:19:50;16.98;;;13.52;;
38083;SDS011;23894;51.466;7.444;2023-04-06T01:21:53;18.52;;;14.30;;
38083;SDS011;23894;51.466;7.444;2023-04-06T01:23:56;17.63;;;13.68;;
38083;SDS011;23894;51.466;7.444;2023-04-06T01:25:57;18.08;;;13.98;;
38083;SDS011;23894;51.466;7.444;2023-04-06T01:27:58;18.10;;;14.15;;
38083;SDS011;23894;51.466;7.444;2023-04-06T01:29:59;17.77;;;13.25;;
38083;SDS011;23894;51.466;7.444;2023-04-06T01:32:01;17.33;;;12.98;;
38083;SDS011;23894;51.466;7.444;2023-04-06T01:34:03;16.55;;;13.15;;
38083;SDS011;23894;51.466;7.444;2023-04-06T01:36:07;18.05;;;13.25;;
38083;SDS011;23894;51.466;7.444;2023-04-06T01:38:09;17.05;;;13.13;;
38083;SDS011;23894;51.466;7.444;2023-04-06T01:40:11;17.02;;;13.68;;
38083;SDS011;23894;51.466;7.444;2023-04-06T01:42:13;16.98;;;13.60;;
38083;SDS011;23894;51.466;7.444;2023-04-06T01:44:16;18.08;;;13.23;;
38083;SDS011;23894;51.466;7.444;2023-04-06T01:46:18;16.15;;;13.20;;
38083;SDS011;23894;51.466;7.444;2023-04-06T01:48:20;17.20;;;13.13;;
38083;SDS011;23894;51.466;7.444;2023-04-06T01:50:21;17.93;;;13.30;;
38083;SDS011;23894;51.466;7.444;2023-04-06T01:52:22;16.75;;;13.05;;
38083;SDS011;23894;51.466;7.444;2023-04-06T01:54:23;16.38;;;13.43;;
38083;SDS011;23894;51.466;7.444;2023-04-06T01:56:25;17.08;;;13.77;;
38083;SDS011;23894;51.466;7.444;2023-04-06T01:58:26;17.30;;;12.95;;
38083;SDS011;23894;51.466;7.444;2023-04-06T02:00:27;15.30;;;13.15;;
38083;SDS011;23894;51.466;7.444;2023-04-06T02:02:29;16.67;;;13.63;;
38083;SDS011;23894;51.466;7.444;2023-04-06T02:04:31;15.52;;;12.38;;
38083;SDS011;23894;51.466;7.444;2023-04-06T02:06:32;17.15;;;13.38;;
38083;SDS011;23894;51.466;7.444;2023-04-06T02:08:33;17.23;;;12.60;;
38083;SDS011;23894;51.466;7.444;2023-04-06T02:10:35;18.05;;;13.80;;
38083;SDS011;23894;51.466;7.444;2023-04-06T02:12:36;15.75;;;12.52;;
38083;SDS011;23894;51.466;7.444;2023-04-06T02:14:37;18.38;;;13.20;;
38083;SDS011;23894;51.466;7.444;2023-04-06T02:16:38;16.83;;;13.77;;
38083;SDS011;23894;51.466;7.444;2023-04-06T02:18:39;15.68;;;12.52;;
38083;SDS011;23894;51.466;7.444;2023-04-06T02:20:40;16.27;;;13.23;;
38083;SDS011;23894;51.466;7.444;2023-04-06T02:22:41;15.68;;;12.40;;
38083;SDS011;23894;51.466;7.444;2023-04-06T02:24:44;16.08;;;12.80;;
38083;SDS011;23894;51.466;7.444;2023-04-06T02:26:47;15.30;;;13.10;;
38083;SDS011;23894;51.466;7.444;2023-04-06T02:28:48;15.88;;;12.85;;
38083;SDS011;23894;51.466;7.444;2023-04-06T02:30:51;17.10;;;12.52;;
38083;SDS011;23894;51.466;7.444;2023-04-06T02:32:52;17.55;;;12.60;;
38083;SDS011;23894;51.466;7.444;2023-04-06T02:34:53;16.85;;;12.32;;
38083;SDS011;23894;51.466;7.444;2023-04-06T02:36:54;15.48;;;12.27;;
38083;SDS011;23894;51.466;7.444;2023-04-06T02:38:55;16.42;;;12.77;;
38083;SDS011;23894;51.466;7.444;2023-04-06T02:40:56;15.98;;;12.63;;
38083;SDS011;23894;51.466;7.444;2023-04-06T02:42:57;15.73;;;11.52;;
38083;SDS011;23894;51.466;7.444;2023-04-06T02:44:58;16.38;;;11.88;;
38083;SDS011;23894;51.466;7.444;2023-04-06T02:46:59;16.95;;;12.25;;
38083;SDS011;23894;51.466;7.444;2023-04-06T02:49:00;15.30;;;11.68;;
38083;SDS011;23894;51.466;7.444;2023-04-06T02:51:02;17.02;;;12.70;;
38083;SDS011;23894;51.466;7.444;2023-04-06T02:53:04;15.50;;;12.40;;
38083;SDS011;23894;51.466;7.444;2023-04-06T02:55:08;13.35;;;11.00;;
38083;SDS011;23894;51.466;7.444;2023-04-06T02:57:09;15.45;;;12.40;;
38083;SDS011;23894;51.466;7.444;2023-04-06T02:59:11;16.35;;;11.82;;
38083;SDS011;23894;51.466;7.444;2023-04-06T03:01:12;16.17;;;11.82;;
38083;SDS011;23894;51.466;7.444;2023-04-06T03:03:13;15.98;;;12.13;;
38083;SDS011;23894;51.466;7.444;2023-04-06T03:05:14;14.65;;;11.85;;
38083;SDS011;23894;51.466;7.444;2023-04-06T03:07:15;15.38;;;11.80;;
38083;SDS011;23894;51.466;7.444;2023-04-06T03:09:16;15.07;;;12.20;;
38083;SDS011;23894;51.466;7.444;2023-04-06T03:11:17;14.95;;;12.40;;
38083;SDS011;23894;51.466;7.444;2023-04-06T03:13:18;14.93;;;12.25;;
38083;SDS011;23894;51.466;7.444;2023-04-06T03:15:20;15.73;;;12.48;;
38083;SDS011;23894;51.466;7.444;2023-04-06T03:17:21;15.32;;;11.55;;
38083;SDS011;23894;51.466;7.444;2023-04-06T03:19:22;15.15;;;12.30;;
38083;SDS011;23894;51.466;7.444;2023-04-06T03:21:23;17.15;;;12.85;;
38083;SDS011;23894;51.466;7.444;2023-04-06T03:23:24;17.25;;;12.85;;
38083;SDS011;23894;51.466;7.444;2023-04-06T03:25:25;14.15;;;12.15;;
38083;SDS011;23894;51.466;7.444;2023-04-06T03:27:27;15.20;;;12.48;;
38083;SDS011;23894;51.466;7.444;2023-04-06T03:29:28;16.40;;;12.50;;
38083;SDS011;23894;51.466;7.444;2023-04-06T03:31:29;14.93;;;12.35;;
38083;SDS011;23894;51.466;7.444;2023-04-06T03:33:30;15.20;;;12.65;;
38083;SDS011;23894;51.466;7.444;2023-04-06T03:35:31;15.98;;;11.40;;
38083;SDS011;23894;51.466;7.444;2023-04-06T03:37:33;17.08;;;12.50;;
38083;SDS011;23894;51.466;7.444;2023-04-06T03:39:34;15.02;;;11.75;;
38083;SDS011;23894;51.466;7.444;2023-04-06T03:41:36;14.38;;;11.93;;
38083;SDS011;23894;51.466;7.444;2023-04-06T03:43:37;15.95;;;12.45;;
38083;SDS011;23894;51.466;7.444;2023-04-06T03:45:38;15.45;;;11.93;;
38083;SDS011;23894;51.466;7.444;2023-04-06T03:47:39;15.70;;;11.75;;
38083;SDS011;23894;51.466;7.444;2023-04-06T03:49:40;16.27;;;12.43;;
38083;SDS011;23894;51.466;7.444;2023-04-06T03:51:41;16.17;;;12.02;;
38083;SDS011;23894;51.466;7.444;2023-04-06T03:53:42;14.68;;;12.07;;
38083;SDS011;23894;51.466;7.444;2023-04-06T03:55:43;14.75;;;12.10;;
38083;SDS011;23894;51.466;7.444;2023-04-06T03:57:44;16.08;;;12.18;;
38083;SDS011;23894;51.466;7.444;2023-04-06T03:59:48;15.88;;;12.70;;
38083;SDS011;23894;51.466;7.444;2023-04-06T04:01:49;17.48;;;12.50;;
38083;SDS011;23894;51.466;7.444;2023-04-06T04:03:51;15.50;;;11.98;;
38083;SDS011;23894;51.466;7.444;2023-04-06T04:05:52;16.50;;;12.60;;
38083;SDS011;23894;51.466;7.444;2023-04-06T04:07:53;14.67;;;12.20;;
38083;SDS011;23894;51.466;7.444;2023-04-06T04:09:55;14.75;;;12.20;;
38083;SDS011;23894;51.466;7.444;2023-04-06T04:11:56;16.90;;;12.05;;
38083;SDS011;23894;51.466;7.444;2023-04-06T04:13:57;15.55;;;12.82;;
38083;SDS011;23894;51.466;7.444;2023-04-06T04:15:58;16.33;;;12.50;;
38083;SDS011;23894;51.466;7.444;2023-04-06T04:18:01;15.65;;;12.38;;
38083;SDS011;23894;51.466;7.444;2023-04-06T04:20:03;15.82;;;12.30;;
38083;SDS011;23894;51.466;7.444;2023-04-06T04:22:04;15.00;;;12.10;;
38083;SDS011;23894;51.466;7.444;2023-04-06T04:24:06;14.80;;;12.32;;
38083;SDS011;23894;51.466;7.444;2023-04-06T04:26:08;17.70;;;11.73;;
38083;SDS011;23894;51.466;7.444;2023-04-06T04:28:11;15.35;;;11.35;;
38083;SDS011;23894;51.466;7.444;2023-04-06T04:30:13;15.80;;;12.40;;
38083;SDS011;23894;51.466;7.444;2023-04-06T04:32:15;15.35;;;11.13;;
38083;SDS011;23894;51.466;7.444;2023-04-06T04:34:16;16.10;;;12.10;;
38083;SDS011;23894;51.466;7.444;2023-04-06T04:36:24;16.42;;;12.20;;
38083;SDS011;23894;51.466;7.444;2023-04-06T04:38:25;16.83;;;12.23;;
38083;SDS011;23894;51.466;7.444;2023-04-06T04:40:26;15.95;;;11.48;;
38083;SDS011;23894;51.466;7.444;2023-04-06T04:42:27;15.82;;;12.18;;
38083;SDS011;23894;51.466;7.444;2023-04-06T04:44:29;13.73;;;11.35;;
38083;SDS011;23894;51.466;7.444;2023-04-06T04:46:30;14.68;;;12.07;;
38083;SDS011;23894;51.466;7.444;2023-04-06T04:48:31;15.82;;;11.73;;
38083;SDS011;23894;51.466;7.444;2023-04-06T04:50:32;15.68;;;12.40;;
38083;SDS011;23894;51.466;7.444;2023-04-06T04:52:33;17.17;;;11.57;;
38083;SDS011;23894;51.466;7.444;2023-04-06T04:54:34;16.45;;;12.25;;
38083;SDS011;23894;51.466;7.444;2023-04-06T04:56:35;15.02;;;11.55;;
38083;SDS011;23894;51.466;7.444;2023-04-06T04:58:36;15.18;;;12.02;;
38083;SDS011;23894;51.466;7.444;2023-04-06T05:00:37;15.45;;;12.35;;
38083;SDS011;23894;51.466;7.444;2023-04-06T05:02:38;15.13;;;12.18;;
38083;SDS011;23894;51.466;7.444;2023-04-06T05:04:41;17.27;;;12.43;;
38083;SDS011;23894;51.466;7.444;2023-04-06T05:06:42;17.13;;;12.55;;
38083;SDS011;23894;51.466;7.444;2023-04-06T05:08:43;15.80;;;12.57;;
38083;SDS011;23894;51.466;7.444;2023-04-06T05:10:45;16.13;;;12.77;;
38083;SDS011;23894;51.466;7.444;2023-04-06T05:12:48;15.15;;;11.98;;
38083;SDS011;23894;51.466;7.444;2023-04-06T05:14:51;15.25;;;11.50;;
38083;SDS011;23894;51.466;7.444;2023-04-06T05:16:53;15.68;;;12.50;;
38083;SDS011;23894;51.466;7.444;2023-04-06T05:18:55;15.20;;;11.73;;
38083;SDS011;23894;51.466;7.444;2023-04-06T05:20:56;15.50;;;11.93;;
38083;SDS011;23894;51.466;7.444;2023-04-06T05:22:57;16.07;;;12.27;;
38083;SDS011;23894;51.466;7.444;2023-04-06T05:24:58;14.60;;;11.37;;
38083;SDS011;23894;51.466;7.444;2023-04-06T05:26:59;16.23;;;12.00;;
38083;SDS011;23894;51.466;7.444;2023-04-06T05:29:00;16.40;;;12.32;;
38083;SDS011;23894;51.466;7.444;2023-04-06T05:31:03;15.43;;;11.55;;
38083;SDS011;23894;51.466;7.444;2023-04-06T05:33:04;15.50;;;10.48;;
38083;SDS011;23894;51.466;7.444;2023-04-06T05:35:06;14.30;;;10.65;;
38083;SDS011;23894;51.466;7.444;2023-04-06T05:37:07;14.30;;;10.45;;
38083;SDS011;23894;51.466;7.444;2023-04-06T05:39:08;14.57;;;11.60;;
38083;SDS011;23894;51.466;7.444;2023-04-06T05:41:09;13.20;;;11.15;;
38083;SDS011;23894;51.466;7.444;2023-04-06T05:43:10;13.75;;;10.77;;
38083;SDS011;23894;51.466;7.444;2023-04-06T05:45:11;14.13;;;11.80;;
38083;SDS011;23894;51.466;7.444;2023-04-06T05:47:16;15.35;;;11.40;;
38083;SDS011;23894;51.466;7.444;2023-04-06T05:49:17;14.48;;;11.77;;
38083;SDS011;23894;51.466;7.444;2023-04-06T05:51:18;17.23;;;10.57;;
38083;SDS011;23894;51.466;7.444;2023-04-06T05:53:19;15.77;;;11.32;;
38083;SDS011;23894;51.466;7.444;2023-04-06T05:55:22;13.48;;;9.95;;
38083;SDS011;23894;51.466;7.444;2023-04-06T05:57:25;13.38;;;9.65;;
38083;SDS011;23894;51.466;7.444;2023-04-06T05:59:26;14.05;;;10.18;;
38083;SDS011;23894;51.466;7.444;2023-04-06T06:01:28;14.85;;;10.52;;
38083;SDS011;23894;51.466;7.444;2023-04-06T06:03:29;13.95;;;9.90;;
38083;SDS011;23894;51.466;7.444;2023-04-06T06:05:30;12.93;;;9.60;;
38083;SDS011;23894;51.466;7.444;2023-04-06T06:07:31;13.57;;;10.32;;
38083;SDS011;23894;51.466;7.444;2023-04-06T06:09:32;14.00;;;10.15;;
38083;SDS011;23894;51.466;7.444;2023-04-06T06:11:34;12.90;;;9.77;;
38083;SDS011;23894;51.466;7.444;2023-04-06T06:13:35;14.05;;;9.68;;
38083;SDS011;23894;51.466;7.444;2023-04-06T06:15:36;14.27;;;9.45;;
38083;SDS011;23894;51.466;7.444;2023-04-06T06:17:39;14.55;;;9.88;;
38083;SDS011;23894;51.466;7.444;2023-04-06T06:19:40;15.13;;;9.53;;
38083;SDS011;23894;51.466;7.444;2023-04-06T06:21:41;13.80;;;9.17;;
38083;SDS011;23894;51.466;7.444;2023-04-06T06:23:42;13.33;;;9.63;;
38083;SDS011;23894;51.466;7.444;2023-04-06T06:25:43;12.60;;;9.30;;
38083;SDS011;23894;51.466;7.444;2023-04-06T06:27:44;12.60;;;9.13;;
38083;SDS011;23894;51.466;7.444;2023-04-06T06:29:47;14.98;;;9.27;;
38083;SDS011;23894;51.466;7.444;2023-04-06T06:31:50;12.45;;;9.10;;
38083;SDS011;23894;51.466;7.444;2023-04-06T06:33:51;12.50;;;9.00;;
38083;SDS011;23894;51.466;7.444;2023-04-06T06:35:53;12.35;;;8.32;;
38083;SDS011;23894;51.466;7.444;2023-04-06T06:37:54;11.35;;;8.43;;
38083;SDS011;23894;51.466;7.444;2023-04-06T06:39:55;12.00;;;9.30;;
38083;SDS011;23894;51.466;7.444;2023-04-06T06:41:56;11.95;;;8.70;;
38083;SDS011;23894;51.466;7.444;2023-04-06T06:44:00;14.45;;;8.98;;
38083;SDS011;23894;51.466;7.444;2023-04-06T06:46:01;12.00;;;8.70;;
38083;SDS011;23894;51.466;7.444;2023-04-06T06:48:02;12.55;;;8.63;;
38083;SDS011;23894;51.466;7.444;2023-04-06T06:50:03;11.95;;;8.75;;
38083;SDS011;23894;51.466;7.444;2023-04-06T06:52:04;12.75;;;8.90;;
38083;SDS011;23894;51.466;7.444;2023-04-06T06:54:07;12.57;;;8.75;;
38083;SDS011;23894;51.466;7.444;2023-04-06T06:56:12;12.02;;;8.82;;
38083;SDS011;23894;51.466;7.444;2023-04-06T06:58:13;12.60;;;9.07;;
38083;SDS011;23894;51.466;7.444;2023-04-06T07:00:14;10.93;;;8.35;;
38083;SDS011;23894;51.466;7.444;2023-04-06T07:02:15;13.02;;;8.82;;
38083;SDS011;23894;51.466;7.444;2023-04-06T07:04:18;12.32;;;8.70;;
38083;SDS011;23894;51.466;7.444;2023-04-06T07:06:19;13.73;;;8.77;;
38083;SDS011;23894;51.466;7.444;2023-04-06T07:08:20;11.02;;;8.32;;
38083;SDS011;23894;51.466;7.444;2023-04-06T07:10:23;12.20;;;8.65;;
38083;SDS011;23894;51.466;7.444;2023-04-06T07:12:24;13.15;;;9.10;;
38083;SDS011;23894;51.466;7.444;2023-04-06T07:14:25;12.55;;;8.75;;
38083;SDS011;23894;51.466;7.444;2023-04-06T07:16:26;11.73;;;8.68;;
38083;SDS011;23894;51.466;7.444;2023-04-06T07:18:27;13.52;;;8.52;;
38083;SDS011;23894;51.466;7.444;2023-04-06T07:20:28;12.90;;;9.03;;
38083;SDS011;23894;51.466;7.444;2023-04-06T07:22:29;12.57;;;8.95;;
38083;SDS011;23894;51.466;7.444;2023-04-06T07:24:30;14.70;;;9.20;;
38083;SDS011;23894;51.466;7.444;2023-04-06T07:26:31;12.90;;;9.57;;
38083;SDS011;23894;51.466;7.444;2023-04-06T07:28:32;13.17;;;9.10;;
38083;SDS011;23894;51.466;7.444;2023-04-06T07:30:33;12.57;;;9.25;;
38083;SDS011;23894;51.466;7.444;2023-04-06T07:32:34;12.93;;;8.90;;
38083;SDS011;23894;51.466;7.444;2023-04-06T07:34:35;14.73;;;10.18;;
38083;SDS011;23894;51.466;7.444;2023-04-06T07:36:36;12.57;;;9.27;;
38083;SDS011;23894;51.466;7.444;2023-04-06T07:38:37;13.57;;;9.32;;
38083;SDS011;23894;51.466;7.444;2023-04-06T07:40:38;15.05;;;9.32;;
38083;SDS011;23894;51.466;7.444;2023-04-06T07:42:40;13.18;;;9.70;;
38083;SDS011;23894;51.466;7.444;2023-04-06T07:44:42;14.13;;;9.90;;
38083;SDS011;23894;51.466;7.444;2023-04-06T07:46:43;13.90;;;9.48;;
38083;SDS011;23894;51.466;7.444;2023-04-06T07:48:45;13.82;;;9.77;;
38083;SDS011;23894;51.466;7.444;2023-04-06T07:50:47;14.43;;;9.70;;
38083;SDS011;23894;51.466;7.444;2023-04-06T07:52:50;13.70;;;10.10;;
38083;SDS011;23894;51.466;7.444;2023-04-06T07:54:51;12.80;;;9.25;;
38083;SDS011;23894;51.466;7.444;2023-04-06T07:56:52;12.60;;;9.20;;
38083;SDS011;23894;51.466;7.444;2023-04-06T07:58:53;13.75;;;9.98;;
38083;SDS011;23894;51.466;7.444;2023-04-06T08:00:58;15.75;;;10.38;;
38083;SDS011;23894;51.466;7.444;2023-04-06T08:02:59;15.82;;;10.00;;
38083;SDS011;23894;51.466;7.444;2023-04-06T08:05:00;13.25;;;9.57;;
38083;SDS011;23894;51.466;7.444;2023-04-06T08:07:01;14.10;;;9.95;;
38083;SDS011;23894;51.466;7.444;2023-04-06T08:09:02;13.30;;;9.30;;
38083;SDS011;23894;51.466;7.444;2023-04-06T08:11:04;16.00;;;10.02;;
38083;SDS011;23894;51.466;7.444;2023-04-06T08:13:05;15.13;;;10.50;;
38083;SDS011;23894;51.466;7.444;2023-04-06T08:15:08;14.20;;;9.57;;
38083;SDS011;23894;51.466;7.444;2023-04-06T08:17:09;14.25;;;10.00;;
38083;SDS011;23894;51.466;7.444;2023-04-06T08:19:11;13.38;;;9.70;;
38083;SDS011;23894;51.466;7.444;2023-04-06T08:21:17;14.25;;;10.27;;
38083;SDS011;23894;51.466;7.444;2023-04-06T08:23:18;15.13;;;10.20;;
38083;SDS011;23894;51.466;7.444;2023-04-06T08:25:19;13.68;;;10.40;;
38083;SDS011;23894;51.466;7.444;2023-04-06T08:27:20;13.43;;;9.88;;
38083;SDS011;23894;51.466;7.444;2023-04-06T08:29:23;13.38;;;10.25;;
38083;SDS011;23894;51.466;7.444;2023-04-06T08:31:24;15.88;;;10.65;;
38083;SDS011;23894;51.466;7.444;2023-04-06T08:33:26;17.58;;;11.02;;
38083;SDS011;23894;51.466;7.444;2023-04-06T08:35:27;15.45;;;10.50;;
38083;SDS011;23894;51.466;7.444;2023-04-06T08:37:28;17.23;;;11.32;;
38083;SDS011;23894;51.466;7.444;2023-04-06T08:39:29;15.07;;;10.93;;
38083;SDS011;23894;51.466;7.444;2023-04-06T08:41:30;16.55;;;10.73;;
38083;SDS011;23894;51.466;7.444;2023-04-06T08:43:35;14.43;;;10.43;;
38083;SDS011;23894;51.466;7.444;2023-04-06T08:45:38;14.68;;;10.70;;
38083;SDS011;23894;51.466;7.444;2023-04-06T08:47:41;16.48;;;11.20;;
38083;SDS011;23894;51.466;7.444;2023-04-06T08:49:43;15.50;;;10.70;;
38083;SDS011;23894;51.466;7.444;2023-04-06T08:51:46;17.45;;;11.52;;
38083;SDS011;23894;51.466;7.444;2023-04-06T08:53:49;16.70;;;11.30;;
38083;SDS011;23894;51.466;7.444;2023-04-06T08:55:51;16.38;;;11.32;;
38083;SDS011;23894;51.466;7.444;2023-04-06T08:57:53;14.88;;;11.40;;
38083;SDS011;23894;51.466;7.444;2023-04-06T08:59:55;17.80;;;11.88;;
38083;SDS011;23894;51.466;7.444;2023-04-06T09:01:57;17.40;;;11.95;;
38083;SDS011;23894;51.466;7.444;2023-04-06T09:04:00;15.30;;;12.03;;
38083;SDS011;23894;51.466;7.444;2023-04-06T09:06:01;16.10;;;12.48;;
38083;SDS011;23894;51.466;7.444;2023-04-06T09:08:04;17.65;;;12.38;;
38083;SDS011;23894;51.466;7.444;2023-04-06T09:10:08;18.02;;;13.07;;
38083;SDS011;23894;51.466;7.444;2023-04-06T09:12:10;17.92;;;12.88;;
38083;SDS011;23894;51.466;7.444;2023-04-06T09:14:38;16.25;;;12.18;;
38083;SDS011;23894;51.466;7.444;2023-04-06T09:16:40;16.48;;;12.40;;
38083;SDS011;23894;51.466;7.444;2023-04-06T09:18:41;16.40;;;12.85;;
38083;SDS011;23894;51.466;7.444;2023-04-06T09:20:43;16.42;;;11.90;;
38083;SDS011;23894;51.466;7.444;2023-04-06T09:22:44;18.42;;;13.48;;
38083;SDS011;23894;51.466;7.444;2023-04-06T09:24:49;18.23;;;12.90;;
38083;SDS011;23894;51.466;7.444;2023-04-06T09:26:52;17.35;;;12.50;;
38083;SDS011;23894;51.466;7.444;2023-04-06T09:28:54;16.75;;;12.27;;
38083;SDS011;23894;51.466;7.444;2023-04-06T09:30:55;16.90;;;12.10;;
38083;SDS011;23894;51.466;7.444;2023-04-06T09:32:57;18.13;;;12.45;;
38083;SDS011;23894;51.466;7.444;2023-04-06T09:35:06;19.13;;;12.70;;
38083;SDS011;23894;51.466;7.444;2023-04-06T09:37:17;16.70;;;12.35;;
38083;SDS011;23894;51.466;7.444;2023-04-06T09:39:20;15.73;;;12.02;;
38083;SDS011;23894;51.466;7.444;2023-04-06T09:41:32;15.57;;;11.57;;
38083;SDS011;23894;51.466;7.444;2023-04-06T09:43:33;16.08;;;12.35;;
38083;SDS011;23894;51.466;7.444;2023-04-06T09:45:36;15.52;;;11.80;;
38083;SDS011;23894;51.466;7.444;2023-04-06T09:47:37;16.25;;;12.10;;
38083;SDS011;23894;51.466;7.444;2023-04-06T09:49:40;15.55;;;12.68;;
38083;SDS011;23894;51.466;7.444;2023-04-06T09:51:44;16.38;;;12.48;;
38083;SDS011;23894;51.466;7.444;2023-04-06T09:53:49;16.40;;;12.48;;
38083;SDS011;23894;51.466;7.444;2023-04-06T09:55:51;17.45;;;13.35;;
38083;SDS011;23894;51.466;7.444;2023-04-06T09:58:05;18.55;;;13.35;;
38083;SDS011;23894;51.466;7.444;2023-04-06T10:00:07;18.15;;;13.68;;
38083;SDS011;23894;51.466;7.444;2023-04-06T10:04:43;18.63;;;14.23;;
38083;SDS011;23894;51.466;7.444;2023-04-06T10:06:44;18.65;;;14.25;;
38083;SDS011;23894;51.466;7.444;2023-04-06T10:08:52;20.63;;;15.32;;
38083;SDS011;23894;51.466;7.444;2023-04-06T10:10:56;20.98;;;16.70;;
38083;SDS011;23894;51.466;7.444;2023-04-06T10:12:58;25.40;;;17.07;;
38083;SDS011;23894;51.466;7.444;2023-04-06T10:15:00;23.90;;;17.27;;
38083;SDS011;23894;51.466;7.444;2023-04-06T10:17:04;23.48;;;18.02;;
38083;SDS011;23894;51.466;7.444;2023-04-06T10:19:10;26.97;;;18.27;;
38083;SDS011;23894;51.466;7.444;2023-04-06T10:21:14;22.35;;;17.98;;
38083;SDS011;23894;51.466;7.444;2023-04-06T10:25:31;23.13;;;17.83;;
38083;SDS011;23894;51.466;7.444;2023-04-06T10:27:32;24.65;;;17.98;;
38083;SDS011;23894;51.466;7.444;2023-04-06T10:29:43;21.08;;;16.55;;
38083;SDS011;23894;51.466;7.444;2023-04-06T10:31:45;24.33;;;18.73;;
38083;SDS011;23894;51.466;7.444;2023-04-06T10:33:56;22.13;;;17.83;;
38083;SDS011;23894;51.466;7.444;2023-04-06T10:35:57;24.25;;;19.48;;
38083;SDS011;23894;51.466;7.444;2023-04-06T10:38:03;25.45;;;18.63;;
38083;SDS011;23894;51.466;7.444;2023-04-06T10:40:04;23.65;;;18.70;;
38083;SDS011;23894;51.466;7.444;2023-04-06T10:42:07;24.27;;;18.50;;
38083;SDS011;23894;51.466;7.444;2023-04-06T10:44:08;23.85;;;17.70;;
38083;SDS011;23894;51.466;7.444;2023-04-06T10:46:17;22.17;;;17.55;;
38083;SDS011;23894;51.466;7.444;2023-04-06T10:48:25;24.02;;;18.95;;
38083;SDS011;23894;51.466;7.444;2023-04-06T10:50:36;24.38;;;18.38;;
38083;SDS011;23894;51.466;7.444;2023-04-06T10:52:37;25.02;;;18.52;;
38083;SDS011;23894;51.466;7.444;2023-04-06T10:54:42;22.42;;;18.27;;
38083;SDS011;23894;51.466;7.444;2023-04-06T10:56:44;23.33;;;17.88;;
38083;SDS011;23894;51.466;7.444;2023-04-06T11:00:47;23.08;;;18.77;;
38083;SDS011;23894;51.466;7.444;2023-04-06T11:02:50;23.45;;;18.88;;
38083;SDS011;23894;51.466;7.444;2023-04-06T11:04:58;22.92;;;18.02;;
38083;SDS011;23894;51.466;7.444;2023-04-06T11:07:01;25.15;;;19.40;;
38083;SDS011;23894;51.466;7.444;2023-04-06T11:09:02;23.17;;;19.25;;
38083;SDS011;23894;51.466;7.444;2023-04-06T11:11:06;21.67;;;17.40;;
38083;SDS011;23894;51.466;7.444;2023-04-06T11:13:08;21.20;;;17.52;;
38083;SDS011;23894;51.466;7.444;2023-04-06T11:15:09;23.23;;;17.70;;
38083;SDS011;23894;51.466;7.444;2023-04-06T11:17:10;23.65;;;18.30;;
38083;SDS011;23894;51.466;7.444;2023-04-06T11:19:11;21.98;;;17.13;;
38083;SDS011;23894;51.466;7.444;2023-04-06T11:21:12;21.87;;;17.23;;
38083;SDS011;23894;51.466;7.444;2023-04-06T11:23:21;21.30;;;17.27;;
38083;SDS011;23894;51.466;7.444;2023-04-06T11:25:23;22.42;;;17.65;;
38083;SDS011;23894;51.466;7.444;2023-04-06T11:27:24;22.25;;;17.33;;
38083;SDS011;23894;51.466;7.444;2023-04-06T11:29:27;22.60;;;16.85;;
38083;SDS011;23894;51.466;7.444;2023-04-06T11:31:29;21.95;;;17.08;;
38083;SDS011;23894;51.466;7.444;2023-04-06T11:33:34;22.40;;;17.55;;
38083;SDS011;23894;51.466;7.444;2023-04-06T11:35:36;21.67;;;17.55;;
38083;SDS011;23894;51.466;7.444;2023-04-06T11:37:37;22.10;;;17.20;;
38083;SDS011;23894;51.466;7.444;2023-04-06T11:39:39;23.02;;;17.40;;
38083;SDS011;23894;51.466;7.444;2023-04-06T11:41:40;22.52;;;17.98;;
38083;SDS011;23894;51.466;7.444;2023-04-06T11:43:49;23.45;;;18.17;;
38083;SDS011;23894;51.466;7.444;2023-04-06T11:45:50;20.98;;;17.77;;
38083;SDS011;23894;51.466;7.444;2023-04-06T11:47:56;23.35;;;18.42;;
38083;SDS011;23894;51.466;7.444;2023-04-06T11:54:36;21.00;;;17.73;;
38083;SDS011;23894;51.466;7.444;2023-04-06T11:56:37;22.33;;;19.57;;
38083;SDS011;23894;51.466;7.444;2023-04-06T11:58:38;22.77;;;19.58;;
38083;SDS011;23894;51.466;7.444;2023-04-06T12:00:39;23.95;;;19.08;;
38083;SDS011;23894;51.466;7.444;2023-04-06T12:02:48;23.35;;;20.08;;
38083;SDS011;23894;51.466;7.444;2023-04-06T12:04:49;23.15;;;20.33;;
38083;SDS011;23894;51.466;7.444;2023-04-06T12:06:50;24.08;;;20.33;;